createdAt,value
2023-02-15T00:01:57.273Z,6.49
2023-02-15T00:03:59.328Z,6.51
2023-02-15T00:06:02.202Z,6.49
2023-02-15T00:08:04.570Z,6.48
2023-02-15T00:10:07.727Z,6.47
2023-02-15T00:12:11.373Z,6.47
2023-02-15T00:14:24.798Z,6.41
2023-02-15T00:16:26.987Z,6.47
2023-02-15T00:18:29.167Z,6.47
2023-02-15T00:20:31.368Z,6.46
2023-02-15T00:22:33.399Z,6.48
2023-02-15T00:24:35.554Z,6.45
2023-02-15T00:26:40.368Z,6.45
2023-02-15T00:28:42.872Z,6.46
2023-02-15T00:30:44.949Z,6.47
2023-02-15T00:32:49.292Z,6.42
2023-02-15T00:34:52.823Z,6.44
2023-02-15T00:36:55.408Z,6.44
2023-02-15T00:38:57.612Z,6.46
2023-02-15T00:41:01.512Z,6.42
2023-02-15T00:43:05.860Z,6.44
2023-02-15T00:45:08.300Z,6.48
2023-02-15T00:47:10.594Z,6.39
2023-02-15T00:49:12.929Z,6.44
2023-02-15T00:51:17.862Z,6.42
2023-02-15T00:53:20.352Z,6.40
2023-02-15T00:55:22.731Z,6.38
2023-02-15T00:57:25.155Z,6.40
2023-02-15T00:59:27.313Z,6.40
2023-02-15T01:01:29.445Z,6.39
2023-02-15T01:03:31.564Z,6.39
2023-02-15T01:05:33.881Z,6.38
2023-02-15T01:07:38.969Z,6.38
2023-02-15T01:09:41.057Z,6.40
2023-02-15T01:11:43.211Z,6.40
2023-02-15T01:13:45.223Z,6.40
2023-02-15T01:15:53.702Z,6.41
2023-02-15T01:17:56.010Z,6.41
2023-02-15T01:19:57.942Z,6.42
2023-02-15T01:21:59.829Z,6.42
2023-02-15T01:24:02.889Z,6.39
2023-02-15T01:26:05.112Z,6.38
2023-02-15T01:28:07.167Z,6.40
2023-02-15T01:30:10.161Z,6.39
2023-02-15T01:32:12.804Z,6.40
2023-02-15T01:34:17.799Z,6.27
2023-02-15T01:36:19.910Z,6.31
2023-02-15T01:38:22.349Z,6.26
2023-02-15T01:40:25.441Z,6.31
2023-02-15T01:42:29.245Z,6.37
2023-02-15T01:44:53.606Z,6.26
2023-02-15T01:46:55.529Z,6.29
2023-02-15T01:49:17.923Z,6.27
2023-02-15T01:51:24.761Z,6.28
2023-02-15T01:53:45.926Z,6.27
2023-02-15T01:56:04.191Z,6.25
2023-02-15T01:58:07.288Z,6.17
2023-02-15T02:00:09.959Z,6.20
2023-02-15T02:02:17.856Z,6.19
2023-02-15T02:04:40.191Z,6.19
2023-02-15T02:06:43.087Z,6.22
2023-02-15T02:08:45.505Z,6.25
2023-02-15T02:10:47.810Z,6.15
2023-02-15T02:12:54.416Z,6.20
2023-02-15T02:14:57.347Z,6.22
2023-02-15T02:17:18.771Z,6.19
2023-02-15T02:19:39.125Z,6.13
2023-02-15T02:21:59.456Z,6.20
2023-02-15T02:24:31.783Z,6.09
2023-02-15T02:27:01.906Z,6.09
2023-02-15T02:29:04.950Z,6.13
2023-02-15T02:31:44.573Z,6.07
2023-02-15T02:34:09.119Z,6.12
2023-02-15T02:36:25.267Z,6.08
2023-02-15T02:38:54.972Z,6.06
2023-02-15T02:41:21.809Z,5.99
2023-02-15T02:43:41.616Z,6.04
2023-02-15T02:46:15.976Z,6.00
2023-02-15T02:48:23.924Z,6.03
2023-02-15T02:50:31.169Z,6.04
2023-02-15T02:52:48.755Z,5.99
2023-02-15T02:54:52.167Z,6.04
2023-02-15T02:56:56.827Z,6.02
2023-02-15T02:59:02.871Z,5.96
2023-02-15T03:01:17.011Z,5.92
2023-02-15T03:03:56.069Z,5.85
2023-02-15T03:06:03.304Z,5.87
2023-02-15T03:08:10.976Z,5.83
2023-02-15T03:10:14.844Z,5.82
2023-02-15T03:12:23.800Z,5.72
2023-02-15T03:14:27.387Z,5.79
2023-02-15T03:16:29.972Z,5.70
2023-02-15T03:18:37.997Z,5.64
2023-02-15T03:20:40.456Z,5.62
2023-02-15T03:23:05.492Z,5.49
2023-02-15T03:25:16.022Z,5.49
2023-02-15T03:27:23.875Z,5.47
2023-02-15T03:29:31.373Z,5.44
2023-02-15T03:31:39.387Z,5.41
2023-02-15T03:33:51.006Z,5.36
2023-02-15T03:36:10.491Z,5.31
2023-02-15T03:38:18.584Z,5.31
2023-02-15T03:40:45.948Z,5.27
2023-02-15T03:42:53.818Z,5.20
2023-02-15T03:45:12.873Z,5.14
2023-02-15T03:47:20.662Z,5.12
2023-02-15T03:49:29.872Z,5.10
2023-02-15T03:51:36.183Z,5.01
2023-02-15T03:53:39.857Z,4.99
2023-02-15T03:55:44.963Z,4.95
2023-02-15T03:58:06.277Z,4.93
2023-02-15T04:00:46.698Z,4.83
2023-02-15T04:03:07.228Z,4.81
2023-02-15T04:05:09.326Z,4.79
2023-02-15T04:07:11.455Z,4.83
2023-02-15T04:09:32.561Z,4.75
2023-02-15T04:11:34.887Z,4.74
2023-02-15T04:13:36.771Z,4.71
2023-02-15T04:15:57.390Z,4.69
2023-02-15T04:17:59.619Z,4.67
2023-02-15T04:20:20.536Z,4.60
2023-02-15T04:22:41.424Z,4.57
2023-02-15T04:25:02.193Z,4.54
2023-02-15T04:27:06.162Z,4.47
2023-02-15T04:29:08.421Z,4.49
2023-02-15T04:31:10.512Z,4.41
2023-02-15T04:33:12.821Z,4.46
2023-02-15T04:35:15.662Z,4.36
2023-02-15T04:37:17.639Z,4.41
2023-02-15T04:39:20.199Z,4.34
2023-02-15T04:41:22.348Z,4.35
2023-02-15T04:43:24.664Z,4.27
2023-02-15T04:45:28.397Z,4.31
2023-02-15T04:47:33.744Z,4.25
2023-02-15T04:49:35.909Z,4.23
2023-02-15T04:51:37.988Z,4.23
2023-02-15T04:53:40.159Z,4.20
2023-02-15T04:55:43.591Z,4.20
2023-02-15T04:57:47.024Z,4.21
2023-02-15T04:59:48.961Z,4.22
2023-02-15T05:01:50.994Z,4.16
2023-02-15T05:03:53.156Z,4.16
2023-02-15T05:05:56.300Z,4.12
2023-02-15T05:07:58.326Z,4.13
2023-02-15T05:10:00.435Z,4.12
2023-02-15T05:12:02.403Z,4.05
2023-02-15T05:14:05.136Z,4.06
2023-02-15T05:16:07.208Z,4.05
2023-02-15T05:18:09.277Z,4.00
2023-02-15T05:20:11.559Z,3.96
2023-02-15T05:22:13.766Z,3.96
2023-02-15T05:24:34.891Z,3.95
2023-02-15T05:26:55.762Z,3.90
2023-02-15T05:28:57.735Z,3.90
2023-02-15T05:31:17.843Z,3.83
2023-02-15T05:33:21.007Z,3.87
2023-02-15T05:35:23.217Z,3.82
2023-02-15T05:37:25.342Z,3.86
2023-02-15T05:39:27.434Z,3.71
2023-02-15T05:41:31.357Z,3.75
2023-02-15T05:43:33.628Z,3.66
2023-02-15T05:45:35.792Z,3.64
2023-02-15T05:47:37.774Z,3.70
2023-02-15T05:49:39.789Z,3.65
2023-02-15T05:51:41.893Z,3.66
2023-02-15T05:53:44.239Z,3.63
2023-02-15T05:55:46.317Z,3.68
2023-02-15T05:57:49.462Z,3.70
2023-02-15T05:59:51.468Z,3.70
2023-02-15T06:01:53.518Z,3.70
2023-02-15T06:03:56.761Z,3.74
2023-02-15T06:05:59.018Z,3.71
2023-02-15T06:08:05.957Z,3.72
2023-02-15T06:10:08.494Z,3.59
2023-02-15T06:12:10.521Z,3.63
2023-02-15T06:14:12.754Z,3.66
2023-02-15T06:16:16.990Z,3.69
2023-02-15T06:18:19.324Z,3.73
2023-02-15T06:20:21.334Z,3.78
2023-02-15T06:22:23.842Z,3.71
2023-02-15T06:24:25.879Z,3.82
2023-02-15T06:26:27.840Z,3.93
2023-02-15T06:28:29.975Z,4.04
2023-02-15T06:30:32.728Z,4.08
2023-02-15T06:32:35.149Z,4.14
2023-02-15T06:34:37.278Z,4.24
2023-02-15T06:36:39.384Z,4.28
2023-02-15T06:38:41.299Z,4.39
2023-02-15T06:40:43.329Z,4.42
2023-02-15T06:42:45.974Z,4.53
2023-02-15T06:44:47.869Z,4.57
2023-02-15T06:46:49.934Z,4.63
2023-02-15T06:48:51.821Z,4.72
2023-02-15T06:50:53.891Z,4.80
2023-02-15T06:52:59.951Z,4.92
2023-02-15T06:55:04.947Z,5.04
2023-02-15T06:57:07.118Z,5.18
2023-02-15T06:59:09.275Z,5.16
2023-02-15T07:01:11.418Z,5.24
2023-02-15T07:03:16.060Z,5.35
2023-02-15T07:05:18.149Z,5.46
2023-02-15T07:07:20.288Z,5.59
2023-02-15T07:09:23.009Z,5.67
2023-02-15T07:11:46.175Z,5.74
2023-02-15T07:13:48.957Z,5.83
2023-02-15T07:15:51.495Z,5.89
2023-02-15T07:17:53.524Z,6.02
2023-02-15T07:19:56.266Z,6.18
2023-02-15T07:21:58.297Z,6.22
2023-02-15T07:24:00.281Z,6.28
2023-02-15T07:26:03.361Z,6.35
2023-02-15T07:28:05.966Z,6.40
2023-02-15T07:30:13.506Z,6.41
2023-02-15T07:32:15.957Z,6.61
2023-02-15T07:34:18.317Z,6.58
2023-02-15T07:36:20.391Z,6.62
2023-02-15T07:38:22.814Z,6.74
2023-02-15T07:40:25.684Z,6.79
2023-02-15T07:42:27.795Z,6.92
2023-02-15T07:44:29.931Z,7.02
2023-02-15T07:46:32.101Z,7.06
2023-02-15T07:48:35.811Z,7.13
2023-02-15T07:50:37.921Z,7.20
2023-02-15T07:52:40.364Z,7.24
2023-02-15T07:54:42.511Z,7.33
2023-02-15T07:56:44.724Z,7.37
2023-02-15T07:58:52.883Z,7.40
2023-02-15T08:01:01.838Z,7.47
2023-02-15T08:03:16.126Z,7.56
2023-02-15T08:05:19.364Z,7.60
2023-02-15T08:07:21.383Z,7.72
2023-02-15T08:09:23.732Z,7.80
2023-02-15T08:11:37.189Z,7.83
2023-02-15T08:13:55.750Z,7.86
2023-02-15T08:15:57.886Z,7.94
2023-02-15T08:18:00.019Z,7.99
2023-02-15T08:20:02.079Z,7.84
2023-02-15T08:22:07.333Z,7.85
2023-02-15T08:24:11.074Z,7.96
2023-02-15T08:26:13.557Z,8.08
2023-02-15T08:28:16.158Z,8.15
2023-02-15T08:30:18.700Z,8.25
2023-02-15T08:32:20.645Z,8.34
2023-02-15T08:34:22.790Z,8.38
2023-02-15T08:36:28.429Z,8.45
2023-02-15T08:38:33.233Z,8.52
2023-02-15T08:40:36.131Z,8.59
2023-02-15T08:42:38.180Z,8.66
2023-02-15T08:44:40.332Z,8.68
2023-02-15T08:46:44.652Z,8.76
2023-02-15T08:48:47.360Z,8.78
2023-02-15T08:50:51.850Z,8.75
2023-02-15T08:52:53.962Z,8.77
2023-02-15T08:54:56.603Z,8.76
2023-02-15T08:56:58.694Z,8.84
2023-02-15T08:59:01.455Z,8.89
2023-02-15T09:01:10.555Z,8.93
2023-02-15T09:03:12.527Z,9.01
2023-02-15T09:05:14.822Z,9.08
2023-02-15T09:07:19.185Z,9.13
2023-02-15T09:09:23.530Z,9.17
2023-02-15T09:11:28.885Z,9.23
2023-02-15T09:13:30.759Z,9.32
2023-02-15T09:15:32.872Z,9.40
2023-02-15T09:17:34.950Z,9.42
2023-02-15T09:19:37.166Z,9.51
2023-02-15T09:21:39.679Z,9.53
2023-02-15T09:23:42.911Z,9.60
2023-02-15T09:25:45.033Z,9.56
2023-02-15T09:27:47.761Z,9.62
2023-02-15T09:29:49.913Z,9.65
2023-02-15T09:31:53.512Z,9.76
2023-02-15T09:33:56.512Z,9.89
2023-02-15T09:35:58.632Z,9.96
2023-02-15T09:38:00.791Z,10.00
2023-02-15T09:40:02.920Z,10.05
2023-02-15T09:42:35.007Z,10.06
2023-02-15T09:44:58.432Z,10.12
2023-02-15T09:47:32.158Z,10.18
2023-02-15T09:50:06.927Z,10.11
2023-02-15T09:52:18.754Z,10.23
2023-02-15T09:54:42.184Z,10.25
2023-02-15T09:57:00.638Z,10.35
2023-02-15T09:59:08.629Z,10.44
2023-02-15T10:01:36.380Z,10.55
2023-02-15T10:04:16.342Z,10.52
2023-02-15T10:06:43.330Z,10.65
2023-02-15T10:09:35.640Z,10.74
2023-02-15T10:12:06.952Z,10.86
2023-02-15T10:14:16.927Z,10.98
2023-02-15T10:16:42.091Z,11.05
2023-02-15T10:19:02.597Z,11.04
2023-02-15T10:21:23.204Z,11.10
2023-02-15T10:24:02.731Z,11.17
2023-02-15T10:26:35.849Z,11.11
2023-02-15T10:28:43.719Z,11.20
2023-02-15T10:30:52.002Z,11.22
2023-02-15T10:33:02.151Z,11.20
2023-02-15T10:35:14.712Z,11.28
2023-02-15T10:37:54.694Z,11.27
2023-02-15T10:40:19.377Z,11.26
2023-02-15T10:42:48.902Z,11.32
2023-02-15T10:45:10.009Z,11.38
2023-02-15T10:47:30.669Z,11.47
2023-02-15T10:49:41.992Z,11.46
2023-02-15T10:52:11.242Z,11.47
2023-02-15T10:54:44.413Z,11.53
2023-02-15T10:57:17.335Z,11.60
2023-02-15T10:59:54.665Z,11.62
2023-02-15T11:02:14.291Z,11.65
2023-02-15T11:04:41.368Z,11.65
2023-02-15T11:06:52.348Z,11.68
2023-02-15T11:09:03.266Z,11.66
2023-02-15T11:11:09.691Z,11.76
2023-02-15T11:13:18.475Z,11.78
2023-02-15T11:15:38.416Z,11.85
2023-02-15T11:17:51.820Z,11.92
2023-02-15T11:20:09.513Z,11.97
2023-02-15T11:22:12.793Z,12.06
2023-02-15T11:24:24.239Z,12.08
2023-02-15T11:26:36.173Z,12.09
2023-02-15T11:28:49.358Z,12.10
2023-02-15T11:30:56.291Z,12.15
2023-02-15T11:33:03.322Z,12.14
2023-02-15T11:35:53.523Z,12.13
2023-02-15T11:38:04.971Z,12.26
2023-02-15T11:40:20.381Z,12.32
2023-02-15T11:42:26.881Z,12.36
2023-02-15T11:44:38.460Z,12.35
2023-02-15T11:46:40.565Z,12.37
2023-02-15T11:48:43.566Z,12.42
2023-02-15T11:50:52.309Z,12.44
2023-02-15T11:53:00.292Z,12.45
2023-02-15T11:55:02.829Z,12.50
2023-02-15T11:57:34.932Z,12.44
2023-02-15T11:59:40.053Z,12.49
2023-02-15T12:01:44.734Z,12.50
2023-02-15T12:03:49.798Z,12.53
2023-02-15T12:05:58.375Z,12.54
2023-02-15T12:08:09.594Z,12.61
2023-02-15T12:10:15.207Z,12.61
2023-02-15T12:12:29.733Z,12.67
2023-02-15T12:14:49.876Z,12.72
2023-02-15T12:16:54.923Z,12.75
2023-02-15T12:19:00.095Z,12.77
2023-02-15T12:21:11.503Z,12.77
2023-02-15T12:23:16.670Z,12.74
2023-02-15T12:25:39.091Z,12.71
2023-02-15T12:27:44.287Z,12.76
2023-02-15T12:29:52.100Z,12.76
2023-02-15T12:31:55.088Z,12.82
2023-02-15T12:34:03.005Z,12.84
2023-02-15T12:36:12.653Z,12.83
2023-02-15T12:38:14.713Z,12.84
2023-02-15T12:40:23.401Z,12.83
2023-02-15T12:42:27.038Z,12.87
2023-02-15T12:44:38.297Z,12.86
2023-02-15T12:46:40.921Z,12.91
2023-02-15T12:48:42.865Z,12.88
2023-02-15T12:50:55.455Z,12.83
2023-02-15T12:53:21.391Z,12.83
2023-02-15T12:55:31.898Z,12.88
2023-02-15T12:57:35.570Z,12.94
2023-02-15T12:59:38.858Z,12.90
2023-02-15T13:01:41.500Z,12.92
2023-02-15T13:04:07.924Z,12.86
2023-02-15T13:06:09.901Z,12.88
2023-02-15T13:08:16.571Z,12.84
2023-02-15T13:10:32.272Z,12.82
2023-02-15T13:12:35.271Z,12.84
2023-02-15T13:14:46.349Z,12.78
2023-02-15T13:16:52.146Z,12.83
2023-02-15T13:18:54.616Z,12.83
2023-02-15T13:20:57.805Z,12.83
2023-02-15T13:23:08.226Z,12.83
2023-02-15T13:25:43.834Z,12.80
2023-02-15T13:27:49.603Z,12.85
2023-02-15T13:29:59.366Z,12.83
2023-02-15T13:32:26.360Z,12.81
2023-02-15T13:34:40.011Z,12.69
2023-02-15T13:37:00.638Z,12.56
2023-02-15T13:39:28.287Z,12.52
2023-02-15T13:42:05.280Z,12.56
2023-02-15T13:44:20.172Z,12.43
2023-02-15T13:46:25.217Z,12.47
2023-02-15T13:48:53.203Z,12.46
2023-02-15T13:51:16.417Z,12.42
2023-02-15T13:53:36.333Z,12.41
2023-02-15T13:55:45.196Z,12.44
2023-02-15T13:58:05.871Z,12.42
2023-02-15T14:00:19.800Z,12.34
2023-02-15T14:02:46.198Z,12.38
2023-02-15T14:04:54.257Z,12.40
2023-02-15T14:06:59.214Z,12.35
2023-02-15T14:09:21.701Z,12.29
2023-02-15T14:11:23.630Z,12.29
2023-02-15T14:13:49.799Z,12.23
2023-02-15T14:16:39.714Z,12.19
2023-02-15T14:18:50.080Z,12.23
2023-02-15T14:21:16.482Z,12.22
2023-02-15T14:23:24.991Z,12.20
2023-02-15T14:25:38.978Z,12.26
2023-02-15T14:28:02.198Z,12.11
2023-02-15T14:30:22.868Z,12.12
2023-02-15T14:32:36.730Z,12.10
2023-02-15T14:34:54.041Z,12.19
2023-02-15T14:36:57.275Z,12.14
2023-02-15T14:39:02.218Z,12.10
2023-02-15T14:41:28.770Z,11.96
2023-02-15T14:43:36.768Z,12.00
2023-02-15T14:45:56.102Z,11.95
2023-02-15T14:48:18.730Z,11.92
2023-02-15T14:50:37.687Z,11.95
2023-02-15T14:53:23.624Z,11.89
2023-02-15T14:56:08.473Z,11.84
2023-02-15T14:58:14.970Z,11.85
2023-02-15T15:00:34.902Z,11.84
2023-02-15T15:02:48.427Z,11.74
2023-02-15T15:05:03.398Z,11.72
2023-02-15T15:07:18.855Z,11.71
2023-02-15T15:09:26.783Z,11.72
2023-02-15T15:11:42.538Z,11.72
2023-02-15T15:13:59.837Z,11.64
2023-02-15T15:16:29.958Z,11.60
2023-02-15T15:18:50.456Z,11.55
2023-02-15T15:20:52.730Z,11.57
2023-02-15T15:23:17.388Z,11.48
2023-02-15T15:25:56.972Z,11.46
2023-02-15T15:27:59.544Z,11.50
2023-02-15T15:30:02.544Z,11.46
2023-02-15T15:32:11.464Z,11.39
2023-02-15T15:34:22.988Z,11.36
2023-02-15T15:36:49.090Z,11.29
2023-02-15T15:39:14.921Z,11.29
2023-02-15T15:41:16.895Z,11.30
2023-02-15T15:43:37.298Z,11.24
2023-02-15T15:45:48.216Z,11.24
2023-02-15T15:48:05.224Z,11.18
2023-02-15T15:50:20.731Z,11.09
2023-02-15T15:52:24.106Z,11.10
2023-02-15T15:54:28.874Z,11.06
2023-02-15T15:56:35.016Z,11.02
2023-02-15T15:58:38.295Z,11.02
2023-02-15T16:00:52.964Z,10.89
2023-02-15T16:02:56.675Z,10.89
2023-02-15T16:05:09.205Z,10.82
2023-02-15T16:07:29.648Z,10.77
2023-02-15T16:09:31.610Z,10.77
2023-02-15T16:11:33.844Z,10.74
2023-02-15T16:13:36.083Z,10.72
2023-02-15T16:15:53.508Z,10.59
2023-02-15T16:17:58.356Z,10.55
2023-02-15T16:20:06.716Z,10.45
2023-02-15T16:22:19.078Z,10.39
2023-02-15T16:24:55.603Z,10.30
2023-02-15T16:27:00.253Z,10.31
2023-02-15T16:29:02.626Z,10.29
2023-02-15T16:31:16.305Z,10.17
2023-02-15T16:33:19.123Z,10.12
2023-02-15T16:35:23.741Z,10.04
2023-02-15T16:37:28.520Z,9.95
2023-02-15T16:39:34.064Z,9.87
2023-02-15T16:41:36.819Z,9.81
2023-02-15T16:43:41.684Z,9.76
2023-02-15T16:45:44.507Z,9.71
2023-02-15T16:47:48.824Z,9.65
2023-02-15T16:49:53.773Z,9.63
2023-02-15T16:52:02.221Z,9.51
2023-02-15T16:54:16.533Z,9.45
2023-02-15T16:56:25.189Z,9.36
2023-02-15T16:58:31.684Z,9.36
2023-02-15T17:00:37.892Z,9.30
2023-02-15T17:02:55.639Z,9.29
2023-02-15T17:05:07.643Z,9.15
2023-02-15T17:07:20.104Z,9.12
2023-02-15T17:09:26.372Z,9.12
2023-02-15T17:11:37.801Z,9.01
2023-02-15T17:13:41.004Z,9.02
2023-02-15T17:15:44.127Z,8.94
2023-02-15T17:17:47.522Z,8.88
2023-02-15T17:19:53.633Z,8.83
2023-02-15T17:21:59.888Z,8.74
2023-02-15T17:24:05.276Z,8.67
2023-02-15T17:26:20.068Z,8.62
2023-02-15T17:28:25.463Z,8.62
2023-02-15T17:30:33.432Z,8.52
2023-02-15T17:32:37.430Z,8.53
2023-02-15T17:34:44.012Z,8.43
2023-02-15T17:37:00.577Z,8.36
2023-02-15T17:39:07.615Z,8.36
2023-02-15T17:41:10.102Z,8.34
2023-02-15T17:43:12.337Z,8.30
2023-02-15T17:45:15.516Z,8.26
2023-02-15T17:47:23.280Z,8.14
2023-02-15T17:49:38.590Z,8.13
2023-02-15T17:51:44.215Z,8.09
2023-02-15T17:54:07.681Z,8.03
2023-02-15T17:56:12.931Z,7.99
2023-02-15T17:58:17.223Z,7.92
2023-02-15T18:00:38.533Z,7.90
2023-02-15T18:02:59.728Z,7.84
2023-02-15T18:05:20.351Z,7.82
2023-02-15T18:07:41.168Z,7.74
2023-02-15T18:10:02.395Z,7.66
2023-02-15T18:12:28.034Z,7.53
2023-02-15T18:14:32.003Z,7.58
2023-02-15T18:16:38.047Z,7.52
2023-02-15T18:18:40.806Z,7.49
2023-02-15T18:20:45.024Z,7.46
2023-02-15T18:22:48.739Z,7.40
2023-02-15T18:24:52.490Z,7.39
2023-02-15T18:26:55.761Z,7.37
2023-02-15T18:29:08.070Z,7.32
2023-02-15T18:31:12.015Z,7.24
2023-02-15T18:33:47.903Z,7.12
2023-02-15T18:35:52.017Z,7.18
2023-02-15T18:37:54.741Z,7.15
2023-02-15T18:39:57.306Z,7.14
2023-02-15T18:42:01.535Z,7.14
2023-02-15T18:44:03.769Z,7.12
2023-02-15T18:46:06.138Z,7.09
2023-02-15T18:48:10.962Z,7.07
2023-02-15T18:50:14.271Z,7.02
2023-02-15T18:52:22.921Z,6.94
2023-02-15T18:54:26.331Z,6.96
2023-02-15T18:56:31.744Z,6.91
2023-02-15T18:58:34.339Z,6.90
2023-02-15T19:00:37.304Z,6.90
2023-02-15T19:02:40.714Z,6.83
2023-02-15T19:04:43.676Z,6.84
2023-02-15T19:06:48.628Z,6.78
2023-02-15T19:08:53.319Z,6.76
2023-02-15T19:10:55.612Z,6.73
2023-02-15T19:12:58.226Z,6.73
2023-02-15T19:15:01.304Z,6.75
2023-02-15T19:17:03.314Z,6.70
2023-02-15T19:19:07.274Z,6.61
2023-02-15T19:21:16.012Z,6.41
2023-02-15T19:23:21.524Z,6.35
2023-02-15T19:25:30.446Z,6.36
2023-02-15T19:27:35.296Z,6.40
2023-02-15T19:29:37.525Z,6.42
2023-02-15T19:31:39.594Z,6.42
2023-02-15T19:33:41.853Z,6.41
2023-02-15T19:35:47.199Z,6.42
2023-02-15T19:37:57.577Z,6.39
2023-02-15T19:40:03.965Z,6.41
2023-02-15T19:42:19.299Z,6.34
2023-02-15T19:44:21.847Z,6.37
2023-02-15T19:46:24.387Z,6.33
2023-02-15T19:48:26.697Z,6.31
2023-02-15T19:50:31.525Z,6.27
2023-02-15T19:52:33.735Z,6.27
2023-02-15T19:54:36.324Z,6.25
2023-02-15T19:56:38.445Z,6.25
2023-02-15T19:58:44.215Z,6.23
2023-02-15T20:00:48.850Z,6.11
2023-02-15T20:02:52.116Z,6.13
2023-02-15T20:04:54.429Z,6.09
2023-02-15T20:06:59.539Z,6.08
2023-02-15T20:09:04.204Z,6.09
2023-02-15T20:11:11.153Z,6.05
2023-02-15T20:13:17.927Z,6.05
2023-02-15T20:15:23.263Z,5.97
2023-02-15T20:17:25.342Z,5.99
2023-02-15T20:19:27.698Z,5.96
2023-02-15T20:21:30.105Z,5.93
2023-02-15T20:23:35.942Z,5.90
2023-02-15T20:25:38.231Z,5.92
2023-02-15T20:27:42.504Z,5.91
2023-02-15T20:29:44.901Z,5.88
2023-02-15T20:31:47.283Z,5.89
2023-02-15T20:33:49.885Z,5.88
2023-02-15T20:35:52.552Z,5.85
2023-02-15T20:37:57.312Z,5.87
2023-02-15T20:39:59.591Z,5.74
2023-02-15T20:42:02.219Z,5.73
2023-02-15T20:44:18.111Z,5.71
2023-02-15T20:46:20.452Z,5.77
2023-02-15T20:48:22.962Z,5.73
2023-02-15T20:50:29.122Z,5.72
2023-02-15T20:52:31.984Z,5.74
2023-02-15T20:54:36.222Z,5.67
2023-02-15T20:56:38.583Z,5.62
2023-02-15T20:58:42.055Z,5.66
2023-02-15T21:00:44.137Z,5.55
2023-02-15T21:02:51.528Z,5.51
2023-02-15T21:04:55.757Z,5.39
2023-02-15T21:06:58.043Z,5.37
2023-02-15T21:09:02.117Z,5.28
2023-02-15T21:11:04.532Z,5.21
2023-02-15T21:13:15.768Z,5.25
2023-02-15T21:15:41.948Z,5.17
2023-02-15T21:17:44.234Z,5.09
2023-02-15T21:19:46.595Z,5.15
2023-02-15T21:21:53.961Z,5.12
2023-02-15T21:23:56.092Z,5.01
2023-02-15T21:25:58.381Z,4.87
2023-02-15T21:28:00.424Z,4.88
2023-02-15T21:30:02.713Z,4.88
2023-02-15T21:32:05.056Z,4.96
2023-02-15T21:34:09.451Z,4.99
2023-02-15T21:36:24.076Z,4.96
2023-02-15T21:38:31.356Z,4.95
2023-02-15T21:40:33.977Z,4.85
2023-02-15T21:42:54.933Z,4.83
2023-02-15T21:45:15.804Z,4.92
2023-02-15T21:47:40.549Z,4.92
2023-02-15T21:49:42.399Z,4.99
2023-02-15T21:52:13.547Z,4.93
2023-02-15T21:54:18.900Z,4.95
2023-02-15T21:56:22.275Z,4.93
2023-02-15T21:58:26.850Z,5.00
2023-02-15T22:00:29.976Z,5.01
2023-02-15T22:02:32.372Z,4.99
2023-02-15T22:04:34.357Z,4.85
2023-02-15T22:06:36.462Z,4.91
2023-02-15T22:08:38.550Z,4.93
2023-02-15T22:10:41.783Z,4.98
2023-02-15T22:12:44.570Z,5.02
2023-02-15T22:14:52.537Z,5.02
2023-02-15T22:16:54.606Z,5.09
2023-02-15T22:18:56.571Z,5.08
2023-02-15T22:20:59.994Z,5.07
2023-02-15T22:23:02.316Z,5.12
2023-02-15T22:25:04.909Z,5.13
2023-02-15T22:27:08.017Z,5.11
2023-02-15T22:29:19.156Z,4.99
2023-02-15T22:31:23.048Z,4.97
2023-02-15T22:33:31.386Z,4.90
2023-02-15T22:35:36.164Z,4.96
2023-02-15T22:37:38.376Z,5.00
2023-02-15T22:39:40.899Z,4.95
2023-02-15T22:41:43.078Z,4.92
2023-02-15T22:43:46.507Z,4.87
2023-02-15T22:45:49.193Z,4.87
2023-02-15T22:47:56.542Z,4.88
2023-02-15T22:50:02.429Z,4.90
2023-02-15T22:52:06.647Z,4.87
2023-02-15T22:54:08.785Z,4.83
2023-02-15T22:56:18.739Z,4.86
2023-02-15T22:58:24.864Z,4.88
2023-02-15T23:00:30.742Z,4.89
2023-02-15T23:02:36.025Z,4.88
2023-02-15T23:04:38.219Z,4.99
2023-02-15T23:06:40.251Z,4.92
2023-02-15T23:08:42.596Z,4.96
2023-02-15T23:10:48.939Z,4.93
2023-02-15T23:13:15.521Z,4.92
2023-02-15T23:15:17.687Z,4.95
2023-02-15T23:17:20.618Z,4.93
2023-02-15T23:19:23.013Z,4.89
2023-02-15T23:21:30.690Z,4.76
2023-02-15T23:23:37.225Z,4.79
2023-02-15T23:25:39.680Z,4.74
2023-02-15T23:27:59.759Z,4.83
2023-02-15T23:30:04.141Z,4.77
2023-02-15T23:32:12.661Z,4.72
2023-02-15T23:34:17.941Z,4.62
2023-02-15T23:36:28.291Z,4.60
2023-02-15T23:38:31.434Z,4.51
2023-02-15T23:40:52.244Z,4.47
2023-02-15T23:42:54.502Z,4.42
2023-02-15T23:44:57.260Z,4.33
2023-02-15T23:46:59.834Z,4.40
2023-02-15T23:49:02.175Z,4.42
2023-02-15T23:51:10.995Z,4.33
2023-02-15T23:53:13.485Z,4.25
2023-02-15T23:55:15.601Z,4.23
2023-02-15T23:57:17.743Z,4.26
2023-02-15T23:59:24.613Z,4.27
